AZU4424 SBKP-SBJP
Flight info
| Callsign | AZU4424 |
|---|---|
| Flight time | N/A |
| Altitude | 37000 |
| Route | KONVI UZ23 ANBEX |
| Aircraft | A20N/M-SDE2E3FGHIRWXY/LB1 |
Departure
| Time | N/A |
|---|---|
| Airport | Viracopos International Airport (SBKP) |
Arrival
| Time | 2026-04-25 01:44 |
|---|---|
| Airport | Presidente Castro Pinto International Airport (SBJP) |
| Time | Latitude | Longitude | Altitude | Speed | Heading |
|---|---|---|---|---|---|
| 2026-04-25 01:23 | -8.51176 | -35.58740 | 29453 ft | 452 kts | 19° |
| 2026-04-25 01:23 | -8.48115 | -35.57789 | 28908 ft | 446 kts | 19° |
| 2026-04-25 01:23 | -8.45159 | -35.56872 | 28367 ft | 442 kts | 19° |
| 2026-04-25 01:24 | -8.42237 | -35.55965 | 27824 ft | 437 kts | 19° |
| 2026-04-25 01:24 | -8.39345 | -35.55067 | 27284 ft | 433 kts | 19° |
| 2026-04-25 01:24 | -8.36471 | -35.54175 | 26754 ft | 430 kts | 19° |
| 2026-04-25 01:24 | -8.33629 | -35.53293 | 26227 ft | 426 kts | 19° |
| 2026-04-25 01:25 | -8.30802 | -35.52415 | 25658 ft | 424 kts | 19° |
| 2026-04-25 01:25 | -8.27996 | -35.51544 | 25139 ft | 421 kts | 19° |
| 2026-04-25 01:25 | -8.25207 | -35.50679 | 24626 ft | 417 kts | 19° |
| 2026-04-25 01:25 | -8.22437 | -35.49819 | 24120 ft | 415 kts | 18° |
| 2026-04-25 01:26 | -8.19685 | -35.48965 | 23596 ft | 412 kts | 18° |
| 2026-04-25 01:26 | -8.16948 | -35.48116 | 23022 ft | 409 kts | 18° |
| 2026-04-25 01:26 | -8.14245 | -35.47278 | 22524 ft | 404 kts | 18° |
| 2026-04-25 01:26 | -8.11572 | -35.46450 | 22013 ft | 400 kts | 18° |
| 2026-04-25 01:27 | -8.08927 | -35.45630 | 21506 ft | 396 kts | 18° |
| 2026-04-25 01:27 | -8.06307 | -35.44817 | 20998 ft | 392 kts | 18° |
| 2026-04-25 01:27 | -8.03711 | -35.44013 | 20493 ft | 389 kts | 18° |
| 2026-04-25 01:28 | -7.98580 | -35.42422 | 19472 ft | 384 kts | 18° |
| 2026-04-25 01:28 | -7.96035 | -35.41634 | 18991 ft | 381 kts | 18° |
| 2026-04-25 01:28 | -7.93501 | -35.40849 | 18506 ft | 379 kts | 18° |
| 2026-04-25 01:28 | -7.90982 | -35.40070 | 17977 ft | 377 kts | 18° |
| 2026-04-25 01:29 | -7.88518 | -35.39307 | 17494 ft | 373 kts | 18° |
| 2026-04-25 01:29 | -7.86047 | -35.38542 | 17000 ft | 370 kts | 18° |
| 2026-04-25 01:29 | -7.83566 | -35.37775 | 16527 ft | 367 kts | 18° |
| 2026-04-25 01:29 | -7.81137 | -35.37023 | 16044 ft | 364 kts | 18° |
| 2026-04-25 01:30 | -7.78757 | -35.36287 | 15564 ft | 361 kts | 19° |
| 2026-04-25 01:30 | -7.76362 | -35.35546 | 15101 ft | 359 kts | 19° |
| 2026-04-25 01:30 | -7.73948 | -35.34800 | 14603 ft | 357 kts | 19° |
| 2026-04-25 01:30 | -7.71611 | -35.34077 | 14166 ft | 355 kts | 19° |
| 2026-04-25 01:31 | -7.69251 | -35.33347 | 13676 ft | 354 kts | 19° |
| 2026-04-25 01:31 | -7.66906 | -35.32622 | 13207 ft | 351 kts | 19° |
| 2026-04-25 01:31 | -7.64584 | -35.31904 | 12752 ft | 347 kts | 19° |
| 2026-04-25 01:31 | -7.62286 | -35.31193 | 12298 ft | 344 kts | 19° |
| 2026-04-25 01:32 | -7.60007 | -35.30488 | 11850 ft | 342 kts | 19° |
| 2026-04-25 01:32 | -7.57740 | -35.29787 | 11406 ft | 339 kts | 18° |
| 2026-04-25 01:32 | -7.55493 | -35.29092 | 10954 ft | 337 kts | 18° |
| 2026-04-25 01:32 | -7.53261 | -35.28402 | 10519 ft | 335 kts | 18° |
| 2026-04-25 01:33 | -7.51065 | -35.27724 | 10330 ft | 324 kts | 18° |
| 2026-04-25 01:33 | -7.48951 | -35.27073 | 10227 ft | 311 kts | 18° |
| 2026-04-25 01:33 | -7.46914 | -35.26444 | 9984 ft | 304 kts | 18° |
| 2026-04-25 01:33 | -7.44917 | -35.25827 | 9800 ft | 295 kts | 19° |
| 2026-04-25 01:34 | -7.42948 | -35.25217 | 9591 ft | 299 kts | 18° |
| 2026-04-25 01:34 | -7.40940 | -35.24595 | 9238 ft | 304 kts | 18° |
| 2026-04-25 01:34 | -7.38920 | -35.23972 | 8862 ft | 303 kts | 18° |
| 2026-04-25 01:34 | -7.36909 | -35.23352 | 8492 ft | 301 kts | 19° |
| 2026-04-25 01:35 | -7.34913 | -35.22736 | 8125 ft | 299 kts | 19° |
| 2026-04-25 01:35 | -7.32934 | -35.22126 | 7756 ft | 297 kts | 19° |
| 2026-04-25 01:35 | -7.30966 | -35.21519 | 7393 ft | 295 kts | 19° |
| 2026-04-25 01:35 | -7.29012 | -35.20916 | 7023 ft | 293 kts | 19° |
| 2026-04-25 01:36 | -7.27065 | -35.20316 | 6668 ft | 292 kts | 19° |
| 2026-04-25 01:36 | -7.25129 | -35.19719 | 6288 ft | 291 kts | 20° |
| 2026-04-25 01:36 | -7.23199 | -35.19124 | 5924 ft | 289 kts | 20° |
| 2026-04-25 01:36 | -7.21278 | -35.18531 | 5560 ft | 288 kts | 20° |
| 2026-04-25 01:37 | -7.19372 | -35.17943 | 5204 ft | 286 kts | 20° |
| 2026-04-25 01:37 | -7.17476 | -35.17358 | 4848 ft | 284 kts | 20° |
| 2026-04-25 01:37 | -7.15587 | -35.16776 | 4478 ft | 283 kts | 20° |
| 2026-04-25 01:37 | -7.13722 | -35.16201 | 4279 ft | 275 kts | 20° |
| 2026-04-25 01:38 | -7.11932 | -35.15652 | 4183 ft | 264 kts | 20° |
| 2026-04-25 01:38 | -7.10222 | -35.15109 | 4079 ft | 251 kts | 25° |
| 2026-04-25 01:38 | -7.08740 | -35.14276 | 3925 ft | 239 kts | 42° |
| 2026-04-25 01:38 | -7.07554 | -35.13134 | 3647 ft | 236 kts | 50° |
| 2026-04-25 01:39 | -7.06423 | -35.11976 | 3509 ft | 226 kts | 49° |
| 2026-04-25 01:39 | -7.05343 | -35.10886 | 3409 ft | 215 kts | 49° |
| 2026-04-25 01:39 | -7.04310 | -35.09847 | 3326 ft | 202 kts | 49° |
| 2026-04-25 01:39 | -7.03380 | -35.08873 | 3247 ft | 185 kts | 59° |
| 2026-04-25 01:40 | -7.02987 | -35.07742 | 3127 ft | 163 kts | 94° |
| 2026-04-25 01:40 | -7.03245 | -35.06709 | 3026 ft | 147 kts | 124° |
| 2026-04-25 01:40 | -7.03900 | -35.05969 | 2748 ft | 141 kts | 138° |
| 2026-04-25 01:40 | -7.04607 | -35.05279 | 2409 ft | 142 kts | 137° |
| 2026-04-25 01:41 | -7.05311 | -35.04576 | 2062 ft | 143 kts | 137° |
| 2026-04-25 01:41 | -7.06003 | -35.03879 | 1853 ft | 142 kts | 137° |
| 2026-04-25 01:41 | -7.06689 | -35.03191 | 1858 ft | 134 kts | 138° |
| 2026-04-25 01:41 | -7.07339 | -35.02540 | 1856 ft | 132 kts | 138° |
| 2026-04-25 01:42 | -7.07996 | -35.01886 | 1855 ft | 132 kts | 138° |
| 2026-04-25 01:42 | -7.08647 | -35.01239 | 1785 ft | 132 kts | 138° |
| 2026-04-25 01:42 | -7.09301 | -35.00589 | 1666 ft | 132 kts | 138° |
| 2026-04-25 01:42 | -7.09951 | -34.99947 | 1541 ft | 133 kts | 138° |
| 2026-04-25 01:43 | -7.10607 | -34.99292 | 1409 ft | 133 kts | 137° |
| 2026-04-25 01:43 | -7.11266 | -34.98618 | 1222 ft | 135 kts | 137° |
| 2026-04-25 01:43 | -7.11913 | -34.97948 | 991 ft | 131 kts | 139° |
| 2026-04-25 01:43 | -7.12581 | -34.97314 | 790 ft | 134 kts | 139° |
| 2026-04-25 01:44 | -7.13252 | -34.96649 | 565 ft | 134 kts | 135° |
| 2026-04-25 01:44 | -7.13922 | -34.95992 | 320 ft | 135 kts | 135° |
| 2026-04-25 01:44 | -7.14573 | -34.95354 | 218 ft | 123 kts | 137° |
| 2026-04-25 01:44 | -7.15015 | -34.94909 | 217 ft | 47 kts | 135° |
| 2026-04-25 01:45 | -7.15078 | -34.94854 | 219 ft | 3 kts | 176° |
| 2026-04-25 01:45 | -7.15093 | -34.94880 | 218 ft | 7 kts | 277° |
| 2026-04-25 01:45 | -7.15035 | -34.94914 | 217 ft | 14 kts | 339° |
| 2026-04-25 01:45 | -7.14938 | -34.94986 | 217 ft | 20 kts | 317° |
| 2026-04-25 01:46 | -7.14845 | -34.95078 | 217 ft | 11 kts | 318° |
| 2026-04-25 01:46 | -7.14776 | -34.95066 | 217 ft | 12 kts | 41° |
| 2026-04-25 01:46 | -7.14732 | -34.95017 | 216 ft | 8 kts | 47° |
| 2026-04-25 01:46 | -7.14719 | -34.94967 | 219 ft | 0 kts | 120° |
| 2026-04-25 01:47 | -7.14725 | -34.94960 | 216 ft | 3 kts | 135° |
| 2026-04-25 01:47 | -7.14748 | -34.94941 | 216 ft | 6 kts | 135° |
| 2026-04-25 01:47 | -7.14760 | -34.94929 | 216 ft | 2 kts | 134° |
| 2026-04-25 01:47 | -7.14774 | -34.94899 | 215 ft | 7 kts | 104° |
| 2026-04-25 01:48 | -7.14753 | -34.94868 | 215 ft | 4 kts | 359° |
| 2026-04-25 01:48 | -7.14720 | -34.94882 | 220 ft | 7 kts | 337° |
| 2026-04-25 01:48 | -7.14715 | -34.94883 | 218 ft | 0 kts | 348° |